sensor_id;sensor_type;location;lat;lon;timestamp;P1;durP1;ratioP1;P2;durP2;ratioP2
76393;SDS011;65216;51.090;-115.352;2023-02-04T00:01:18;10.60;;;1.30;;
76393;SDS011;65216;51.090;-115.352;2023-02-04T00:03:49;9.90;;;1.00;;
76393;SDS011;65216;51.090;-115.352;2023-02-04T00:06:19;13.90;;;1.30;;
76393;SDS011;65216;51.090;-115.352;2023-02-04T00:08:46;12.40;;;1.10;;
76393;SDS011;65216;51.090;-115.352;2023-02-04T00:11:14;9.60;;;1.10;;
76393;SDS011;65216;51.090;-115.352;2023-02-04T00:13:41;15.10;;;1.60;;
76393;SDS011;65216;51.090;-115.352;2023-02-04T00:16:11;7.10;;;1.40;;
76393;SDS011;65216;51.090;-115.352;2023-02-04T00:18:41;18.70;;;1.70;;
76393;SDS011;65216;51.090;-115.352;2023-02-04T00:21:12;15.90;;;1.50;;
76393;SDS011;65216;51.090;-115.352;2023-02-04T00:23:40;11.60;;;1.30;;
76393;SDS011;65216;51.090;-115.352;2023-02-04T00:26:07;18.40;;;1.40;;
76393;SDS011;65216;51.090;-115.352;2023-02-04T00:28:34;12.60;;;1.60;;
76393;SDS011;65216;51.090;-115.352;2023-02-04T00:31:02;16.00;;;1.40;;
76393;SDS011;65216;51.090;-115.352;2023-02-04T00:33:34;16.60;;;1.20;;
76393;SDS011;65216;51.090;-115.352;2023-02-04T00:36:02;14.90;;;1.60;;
76393;SDS011;65216;51.090;-115.352;2023-02-04T00:38:29;15.00;;;1.40;;
76393;SDS011;65216;51.090;-115.352;2023-02-04T00:40:59;13.50;;;1.10;;
76393;SDS011;65216;51.090;-115.352;2023-02-04T00:43:26;11.50;;;1.40;;
76393;SDS011;65216;51.090;-115.352;2023-02-04T00:45:56;15.40;;;1.50;;
76393;SDS011;65216;51.090;-115.352;2023-02-04T00:48:24;9.30;;;1.40;;
76393;SDS011;65216;51.090;-115.352;2023-02-04T00:50:51;12.50;;;1.30;;
76393;SDS011;65216;51.090;-115.352;2023-02-04T00:53:19;17.70;;;1.60;;
76393;SDS011;65216;51.090;-115.352;2023-02-04T00:55:46;9.80;;;1.50;;
76393;SDS011;65216;51.090;-115.352;2023-02-04T00:58:19;7.70;;;1.20;;
76393;SDS011;65216;51.090;-115.352;2023-02-04T01:00:49;12.50;;;1.30;;
76393;SDS011;65216;51.090;-115.352;2023-02-04T01:03:20;15.50;;;1.70;;
76393;SDS011;65216;51.090;-115.352;2023-02-04T01:05:47;15.80;;;1.30;;
76393;SDS011;65216;51.090;-115.352;2023-02-04T01:08:15;16.80;;;1.50;;
76393;SDS011;65216;51.090;-115.352;2023-02-04T01:10:45;11.60;;;1.40;;
76393;SDS011;65216;51.090;-115.352;2023-02-04T01:13:15;16.40;;;1.60;;
76393;SDS011;65216;51.090;-115.352;2023-02-04T01:15:45;14.40;;;1.70;;
76393;SDS011;65216;51.090;-115.352;2023-02-04T01:18:13;12.20;;;2.00;;
76393;SDS011;65216;51.090;-115.352;2023-02-04T01:20:40;18.60;;;1.70;;
76393;SDS011;65216;51.090;-115.352;2023-02-04T01:23:10;17.50;;;1.70;;
76393;SDS011;65216;51.090;-115.352;2023-02-04T01:25:37;21.00;;;2.10;;
76393;SDS011;65216;51.090;-115.352;2023-02-04T01:28:08;17.40;;;1.90;;
76393;SDS011;65216;51.090;-115.352;2023-02-04T01:30:35;16.60;;;1.70;;
76393;SDS011;65216;51.090;-115.352;2023-02-04T01:33:02;15.90;;;1.50;;
76393;SDS011;65216;51.090;-115.352;2023-02-04T01:35:30;12.90;;;1.60;;
76393;SDS011;65216;51.090;-115.352;2023-02-04T01:37:57;17.80;;;1.90;;
76393;SDS011;65216;51.090;-115.352;2023-02-04T01:40:24;18.50;;;2.10;;
76393;SDS011;65216;51.090;-115.352;2023-02-04T01:42:54;13.30;;;1.60;;
76393;SDS011;65216;51.090;-115.352;2023-02-04T01:45:22;16.60;;;1.80;;
76393;SDS011;65216;51.090;-115.352;2023-02-04T01:47:49;12.50;;;1.50;;
76393;SDS011;65216;51.090;-115.352;2023-02-04T01:50:17;21.90;;;2.00;;
76393;SDS011;65216;51.090;-115.352;2023-02-04T01:52:45;20.00;;;2.40;;
76393;SDS011;65216;51.090;-115.352;2023-02-04T01:55:16;22.50;;;2.00;;
76393;SDS011;65216;51.090;-115.352;2023-02-04T01:57:45;17.70;;;1.80;;
76393;SDS011;65216;51.090;-115.352;2023-02-04T02:00:18;16.50;;;2.10;;
76393;SDS011;65216;51.090;-115.352;2023-02-04T02:02:51;17.30;;;1.70;;
76393;SDS011;65216;51.090;-115.352;2023-02-04T02:05:38;19.70;;;2.00;;
76393;SDS011;65216;51.090;-115.352;2023-02-04T02:08:12;15.10;;;1.90;;
76393;SDS011;65216;51.090;-115.352;2023-02-04T02:10:42;17.30;;;1.90;;
76393;SDS011;65216;51.090;-115.352;2023-02-04T02:13:17;19.40;;;1.80;;
76393;SDS011;65216;51.090;-115.352;2023-02-04T02:15:50;22.60;;;2.60;;
76393;SDS011;65216;51.090;-115.352;2023-02-04T02:18:18;14.60;;;1.80;;
76393;SDS011;65216;51.090;-115.352;2023-02-04T02:20:50;18.60;;;2.00;;
76393;SDS011;65216;51.090;-115.352;2023-02-04T02:23:46;22.70;;;1.90;;
76393;SDS011;65216;51.090;-115.352;2023-02-04T02:26:23;19.00;;;1.70;;
76393;SDS011;65216;51.090;-115.352;2023-02-04T02:28:51;24.70;;;2.40;;
76393;SDS011;65216;51.090;-115.352;2023-02-04T02:31:20;16.40;;;1.70;;
76393;SDS011;65216;51.090;-115.352;2023-02-04T02:33:48;21.10;;;1.90;;
76393;SDS011;65216;51.090;-115.352;2023-02-04T02:36:21;13.70;;;2.10;;
76393;SDS011;65216;51.090;-115.352;2023-02-04T02:38:51;13.70;;;1.90;;
76393;SDS011;65216;51.090;-115.352;2023-02-04T02:41:20;21.30;;;1.80;;
76393;SDS011;65216;51.090;-115.352;2023-02-04T02:43:47;19.40;;;1.80;;
76393;SDS011;65216;51.090;-115.352;2023-02-04T02:46:18;19.40;;;2.20;;
76393;SDS011;65216;51.090;-115.352;2023-02-04T02:48:45;19.00;;;1.70;;
76393;SDS011;65216;51.090;-115.352;2023-02-04T02:51:12;18.90;;;2.20;;
76393;SDS011;65216;51.090;-115.352;2023-02-04T02:53:40;15.00;;;1.70;;
76393;SDS011;65216;51.090;-115.352;2023-02-04T02:56:08;11.90;;;1.50;;
76393;SDS011;65216;51.090;-115.352;2023-02-04T02:58:38;18.50;;;1.70;;
76393;SDS011;65216;51.090;-115.352;2023-02-04T03:01:07;17.20;;;1.90;;
76393;SDS011;65216;51.090;-115.352;2023-02-04T03:03:39;12.80;;;1.60;;
76393;SDS011;65216;51.090;-115.352;2023-02-04T03:06:16;17.90;;;1.80;;
76393;SDS011;65216;51.090;-115.352;2023-02-04T03:08:55;16.60;;;1.90;;
76393;SDS011;65216;51.090;-115.352;2023-02-04T03:11:25;16.20;;;1.60;;
76393;SDS011;65216;51.090;-115.352;2023-02-04T03:14:01;11.90;;;1.50;;
76393;SDS011;65216;51.090;-115.352;2023-02-04T03:16:31;15.10;;;1.70;;
76393;SDS011;65216;51.090;-115.352;2023-02-04T03:19:02;12.30;;;1.40;;
76393;SDS011;65216;51.090;-115.352;2023-02-04T03:21:33;18.20;;;1.70;;
76393;SDS011;65216;51.090;-115.352;2023-02-04T03:24:01;13.40;;;1.60;;
76393;SDS011;65216;51.090;-115.352;2023-02-04T03:26:29;15.80;;;1.80;;
76393;SDS011;65216;51.090;-115.352;2023-02-04T03:28:58;18.20;;;1.90;;
76393;SDS011;65216;51.090;-115.352;2023-02-04T03:31:25;19.90;;;1.60;;
76393;SDS011;65216;51.090;-115.352;2023-02-04T03:33:55;17.20;;;1.70;;
76393;SDS011;65216;51.090;-115.352;2023-02-04T03:36:23;16.10;;;1.70;;
76393;SDS011;65216;51.090;-115.352;2023-02-04T03:38:50;14.00;;;1.70;;
76393;SDS011;65216;51.090;-115.352;2023-02-04T03:41:23;9.60;;;1.60;;
76393;SDS011;65216;51.090;-115.352;2023-02-04T03:43:51;15.30;;;1.70;;
76393;SDS011;65216;51.090;-115.352;2023-02-04T03:46:18;19.40;;;2.20;;
76393;SDS011;65216;51.090;-115.352;2023-02-04T03:48:48;12.70;;;1.20;;
76393;SDS011;65216;51.090;-115.352;2023-02-04T03:51:18;14.20;;;1.70;;
76393;SDS011;65216;51.090;-115.352;2023-02-04T03:53:48;11.80;;;1.20;;
76393;SDS011;65216;51.090;-115.352;2023-02-04T03:56:19;14.50;;;1.90;;
76393;SDS011;65216;51.090;-115.352;2023-02-04T03:58:46;16.70;;;2.00;;
76393;SDS011;65216;51.090;-115.352;2023-02-04T04:01:13;14.90;;;1.60;;
76393;SDS011;65216;51.090;-115.352;2023-02-04T04:03:40;19.10;;;2.40;;
76393;SDS011;65216;51.090;-115.352;2023-02-04T04:06:08;28.50;;;2.10;;
76393;SDS011;65216;51.090;-115.352;2023-02-04T04:08:37;14.70;;;1.80;;
76393;SDS011;65216;51.090;-115.352;2023-02-04T04:11:05;16.70;;;1.80;;
76393;SDS011;65216;51.090;-115.352;2023-02-04T04:13:35;20.20;;;2.00;;
76393;SDS011;65216;51.090;-115.352;2023-02-04T04:16:02;14.80;;;1.70;;
76393;SDS011;65216;51.090;-115.352;2023-02-04T04:18:30;17.60;;;2.10;;
76393;SDS011;65216;51.090;-115.352;2023-02-04T04:20:58;14.80;;;1.70;;
76393;SDS011;65216;51.090;-115.352;2023-02-04T04:23:25;20.30;;;1.80;;
76393;SDS011;65216;51.090;-115.352;2023-02-04T04:25:53;18.80;;;1.60;;
76393;SDS011;65216;51.090;-115.352;2023-02-04T04:28:20;14.30;;;1.40;;
76393;SDS011;65216;51.090;-115.352;2023-02-04T04:30:51;12.50;;;1.50;;
76393;SDS011;65216;51.090;-115.352;2023-02-04T04:33:18;13.70;;;1.50;;
76393;SDS011;65216;51.090;-115.352;2023-02-04T04:35:46;16.00;;;1.70;;
76393;SDS011;65216;51.090;-115.352;2023-02-04T04:38:13;7.80;;;1.20;;
76393;SDS011;65216;51.090;-115.352;2023-02-04T04:40:46;11.80;;;1.40;;
76393;SDS011;65216;51.090;-115.352;2023-02-04T04:45:46;10.40;;;1.10;;
76393;SDS011;65216;51.090;-115.352;2023-02-04T04:48:13;9.10;;;1.20;;
76393;SDS011;65216;51.090;-115.352;2023-02-04T04:50:41;7.90;;;0.90;;
76393;SDS011;65216;51.090;-115.352;2023-02-04T04:53:08;7.90;;;1.20;;
76393;SDS011;65216;51.090;-115.352;2023-02-04T04:55:39;5.70;;;0.90;;
76393;SDS011;65216;51.090;-115.352;2023-02-04T04:58:07;5.10;;;1.10;;
76393;SDS011;65216;51.090;-115.352;2023-02-04T05:00:34;9.10;;;1.10;;
76393;SDS011;65216;51.090;-115.352;2023-02-04T05:03:05;11.00;;;1.30;;
76393;SDS011;65216;51.090;-115.352;2023-02-04T05:05:34;5.50;;;0.90;;
76393;SDS011;65216;51.090;-115.352;2023-02-04T05:08:12;6.50;;;1.20;;
76393;SDS011;65216;51.090;-115.352;2023-02-04T05:10:42;4.40;;;0.70;;
76393;SDS011;65216;51.090;-115.352;2023-02-04T05:13:10;3.00;;;0.80;;
76393;SDS011;65216;51.090;-115.352;2023-02-04T05:18:56;5.50;;;0.70;;
76393;SDS011;65216;51.090;-115.352;2023-02-04T05:21:24;4.20;;;0.70;;
76393;SDS011;65216;51.090;-115.352;2023-02-04T05:23:51;2.80;;;0.60;;
76393;SDS011;65216;51.090;-115.352;2023-02-04T05:26:21;3.20;;;0.70;;
76393;SDS011;65216;51.090;-115.352;2023-02-04T05:28:48;2.10;;;0.50;;
76393;SDS011;65216;51.090;-115.352;2023-02-04T05:31:16;1.90;;;0.50;;
76393;SDS011;65216;51.090;-115.352;2023-02-04T05:33:46;2.80;;;0.50;;
76393;SDS011;65216;51.090;-115.352;2023-02-04T05:36:13;3.70;;;0.40;;
76393;SDS011;65216;51.090;-115.352;2023-02-04T05:38:49;3.40;;;0.50;;
76393;SDS011;65216;51.090;-115.352;2023-02-04T05:41:19;3.70;;;0.80;;
76393;SDS011;65216;51.090;-115.352;2023-02-04T05:43:46;4.00;;;0.50;;
76393;SDS011;65216;51.090;-115.352;2023-02-04T05:46:20;1.80;;;0.50;;
76393;SDS011;65216;51.090;-115.352;2023-02-04T05:48:50;2.00;;;0.50;;
76393;SDS011;65216;51.090;-115.352;2023-02-04T05:51:18;3.90;;;0.60;;
76393;SDS011;65216;51.090;-115.352;2023-02-04T05:53:45;2.00;;;0.50;;
76393;SDS011;65216;51.090;-115.352;2023-02-04T05:56:12;3.00;;;0.60;;
76393;SDS011;65216;51.090;-115.352;2023-02-04T05:58:42;2.10;;;0.40;;
76393;SDS011;65216;51.090;-115.352;2023-02-04T06:01:12;2.90;;;0.50;;
76393;SDS011;65216;51.090;-115.352;2023-02-04T06:03:39;1.00;;;0.50;;
76393;SDS011;65216;51.090;-115.352;2023-02-04T06:06:09;1.30;;;0.50;;
76393;SDS011;65216;51.090;-115.352;2023-02-04T06:08:37;2.80;;;0.40;;
76393;SDS011;65216;51.090;-115.352;2023-02-04T06:11:06;0.90;;;0.30;;
76393;SDS011;65216;51.090;-115.352;2023-02-04T06:13:34;1.90;;;0.40;;
76393;SDS011;65216;51.090;-115.352;2023-02-04T06:16:04;2.10;;;0.40;;
76393;SDS011;65216;51.090;-115.352;2023-02-04T06:18:32;0.90;;;0.20;;
76393;SDS011;65216;51.090;-115.352;2023-02-04T06:20:59;3.60;;;0.50;;
76393;SDS011;65216;51.090;-115.352;2023-02-04T06:23:30;1.70;;;0.20;;
76393;SDS011;65216;51.090;-115.352;2023-02-04T06:26:02;0.30;;;0.10;;
76393;SDS011;65216;51.090;-115.352;2023-02-04T06:28:32;0.90;;;0.20;;
76393;SDS011;65216;51.090;-115.352;2023-02-04T06:31:02;0.90;;;0.30;;
76393;SDS011;65216;51.090;-115.352;2023-02-04T06:33:33;0.40;;;0.20;;
76393;SDS011;65216;51.090;-115.352;2023-02-04T06:36:07;1.20;;;0.30;;
76393;SDS011;65216;51.090;-115.352;2023-02-04T06:38:38;0.70;;;0.30;;
76393;SDS011;65216;51.090;-115.352;2023-02-04T06:41:08;1.50;;;0.30;;
76393;SDS011;65216;51.090;-115.352;2023-02-04T06:43:39;2.30;;;0.50;;
76393;SDS011;65216;51.090;-115.352;2023-02-04T06:46:09;0.90;;;0.40;;
76393;SDS011;65216;51.090;-115.352;2023-02-04T06:48:39;0.50;;;0.30;;
76393;SDS011;65216;51.090;-115.352;2023-02-04T06:51:09;0.20;;;0.20;;
76393;SDS011;65216;51.090;-115.352;2023-02-04T06:53:36;0.70;;;0.40;;
76393;SDS011;65216;51.090;-115.352;2023-02-04T06:56:10;0.20;;;0.20;;
76393;SDS011;65216;51.090;-115.352;2023-02-04T06:58:38;0.30;;;0.20;;
76393;SDS011;65216;51.090;-115.352;2023-02-04T07:01:05;0.30;;;0.30;;
76393;SDS011;65216;51.090;-115.352;2023-02-04T07:03:32;1.50;;;0.30;;
76393;SDS011;65216;51.090;-115.352;2023-02-04T07:06:00;0.80;;;0.30;;
76393;SDS011;65216;51.090;-115.352;2023-02-04T07:08:27;0.30;;;0.20;;
76393;SDS011;65216;51.090;-115.352;2023-02-04T07:11:24;0.90;;;0.40;;
76393;SDS011;65216;51.090;-115.352;2023-02-04T07:13:51;0.10;;;0.10;;
76393;SDS011;65216;51.090;-115.352;2023-02-04T07:16:27;0.10;;;0.10;;
76393;SDS011;65216;51.090;-115.352;2023-02-04T07:18:56;0.10;;;0.10;;
76393;SDS011;65216;51.090;-115.352;2023-02-04T07:21:24;0.40;;;0.20;;
76393;SDS011;65216;51.090;-115.352;2023-02-04T07:23:53;0.60;;;0.30;;
76393;SDS011;65216;51.090;-115.352;2023-02-04T07:26:20;1.70;;;0.30;;
76393;SDS011;65216;51.090;-115.352;2023-02-04T07:28:51;1.80;;;0.40;;
76393;SDS011;65216;51.090;-115.352;2023-02-04T07:31:19;1.60;;;0.40;;
76393;SDS011;65216;51.090;-115.352;2023-02-04T07:33:47;3.90;;;0.80;;
76393;SDS011;65216;51.090;-115.352;2023-02-04T07:36:14;17.20;;;2.10;;
76393;SDS011;65216;51.090;-115.352;2023-02-04T07:38:48;16.50;;;2.80;;
76393;SDS011;65216;51.090;-115.352;2023-02-04T07:41:15;66.60;;;9.20;;
76393;SDS011;65216;51.090;-115.352;2023-02-04T07:43:47;65.10;;;10.00;;
76393;SDS011;65216;51.090;-115.352;2023-02-04T07:46:18;70.70;;;12.00;;
76393;SDS011;65216;51.090;-115.352;2023-02-04T07:48:47;63.00;;;9.00;;
76393;SDS011;65216;51.090;-115.352;2023-02-04T07:51:14;72.10;;;10.10;;
76393;SDS011;65216;51.090;-115.352;2023-02-04T07:54:14;39.00;;;6.40;;
76393;SDS011;65216;51.090;-115.352;2023-02-04T07:56:44;34.50;;;5.20;;
76393;SDS011;65216;51.090;-115.352;2023-02-04T07:59:11;40.90;;;6.20;;
76393;SDS011;65216;51.090;-115.352;2023-02-04T08:01:41;39.80;;;5.40;;
76393;SDS011;65216;51.090;-115.352;2023-02-04T08:04:09;33.00;;;5.20;;
76393;SDS011;65216;51.090;-115.352;2023-02-04T08:06:36;29.60;;;4.60;;
76393;SDS011;65216;51.090;-115.352;2023-02-04T08:09:06;30.20;;;4.70;;
76393;SDS011;65216;51.090;-115.352;2023-02-04T08:11:36;23.60;;;4.30;;
76393;SDS011;65216;51.090;-115.352;2023-02-04T08:16:33;21.00;;;3.70;;
76393;SDS011;65216;51.090;-115.352;2023-02-04T08:19:04;18.30;;;3.50;;
76393;SDS011;65216;51.090;-115.352;2023-02-04T08:21:31;18.80;;;3.50;;
76393;SDS011;65216;51.090;-115.352;2023-02-04T08:24:01;18.10;;;3.30;;
76393;SDS011;65216;51.090;-115.352;2023-02-04T08:26:28;17.30;;;2.90;;
76393;SDS011;65216;51.090;-115.352;2023-02-04T08:28:58;14.60;;;2.50;;
76393;SDS011;65216;51.090;-115.352;2023-02-04T08:31:29;13.10;;;2.70;;
76393;SDS011;65216;51.090;-115.352;2023-02-04T08:33:56;9.10;;;2.30;;
76393;SDS011;65216;51.090;-115.352;2023-02-04T08:36:27;12.60;;;2.30;;
76393;SDS011;65216;51.090;-115.352;2023-02-04T08:38:54;10.60;;;2.00;;
76393;SDS011;65216;51.090;-115.352;2023-02-04T08:41:24;10.10;;;1.80;;
76393;SDS011;65216;51.090;-115.352;2023-02-04T08:43:51;8.10;;;1.70;;
76393;SDS011;65216;51.090;-115.352;2023-02-04T08:46:19;8.50;;;1.80;;
76393;SDS011;65216;51.090;-115.352;2023-02-04T08:48:50;9.20;;;1.60;;
76393;SDS011;65216;51.090;-115.352;2023-02-04T08:51:20;6.40;;;1.50;;
76393;SDS011;65216;51.090;-115.352;2023-02-04T08:53:49;6.10;;;1.40;;
76393;SDS011;65216;51.090;-115.352;2023-02-04T08:56:16;5.40;;;1.30;;
76393;SDS011;65216;51.090;-115.352;2023-02-04T08:58:46;7.20;;;1.50;;
76393;SDS011;65216;51.090;-115.352;2023-02-04T09:01:21;12.00;;;1.40;;
76393;SDS011;65216;51.090;-115.352;2023-02-04T09:03:48;8.60;;;1.30;;
76393;SDS011;65216;51.090;-115.352;2023-02-04T09:06:24;4.70;;;1.10;;
76393;SDS011;65216;51.090;-115.352;2023-02-04T09:08:54;6.00;;;1.00;;
76393;SDS011;65216;51.090;-115.352;2023-02-04T09:11:24;7.50;;;0.90;;
76393;SDS011;65216;51.090;-115.352;2023-02-04T09:13:52;6.10;;;0.90;;
76393;SDS011;65216;51.090;-115.352;2023-02-04T09:16:22;4.60;;;0.80;;
76393;SDS011;65216;51.090;-115.352;2023-02-04T09:18:50;5.00;;;0.90;;
76393;SDS011;65216;51.090;-115.352;2023-02-04T09:21:17;4.60;;;0.90;;
76393;SDS011;65216;51.090;-115.352;2023-02-04T09:23:47;3.30;;;0.70;;
76393;SDS011;65216;51.090;-115.352;2023-02-04T09:26:14;3.60;;;0.80;;
76393;SDS011;65216;51.090;-115.352;2023-02-04T09:28:42;3.00;;;0.60;;
76393;SDS011;65216;51.090;-115.352;2023-02-04T09:31:09;2.20;;;0.60;;
76393;SDS011;65216;51.090;-115.352;2023-02-04T09:33:40;2.40;;;0.70;;
76393;SDS011;65216;51.090;-115.352;2023-02-04T09:36:10;4.70;;;0.70;;
76393;SDS011;65216;51.090;-115.352;2023-02-04T09:38:37;2.20;;;0.60;;
76393;SDS011;65216;51.090;-115.352;2023-02-04T09:41:09;3.30;;;0.60;;
76393;SDS011;65216;51.090;-115.352;2023-02-04T09:43:43;3.30;;;0.70;;
76393;SDS011;65216;51.090;-115.352;2023-02-04T09:46:31;3.20;;;0.70;;
76393;SDS011;65216;51.090;-115.352;2023-02-04T09:48:59;2.30;;;0.60;;
76393;SDS011;65216;51.090;-115.352;2023-02-04T09:51:30;1.50;;;0.50;;
76393;SDS011;65216;51.090;-115.352;2023-02-04T09:54:19;2.00;;;0.50;;
76393;SDS011;65216;51.090;-115.352;2023-02-04T09:56:48;1.90;;;0.50;;
76393;SDS011;65216;51.090;-115.352;2023-02-04T09:59:21;1.90;;;0.50;;
76393;SDS011;65216;51.090;-115.352;2023-02-04T10:02:04;2.00;;;0.50;;
76393;SDS011;65216;51.090;-115.352;2023-02-04T10:04:48;1.30;;;0.40;;
76393;SDS011;65216;51.090;-115.352;2023-02-04T10:07:18;0.70;;;0.30;;
76393;SDS011;65216;51.090;-115.352;2023-02-04T10:09:53;1.70;;;0.40;;
76393;SDS011;65216;51.090;-115.352;2023-02-04T10:12:24;1.80;;;0.40;;
76393;SDS011;65216;51.090;-115.352;2023-02-04T10:14:54;1.40;;;0.30;;
76393;SDS011;65216;51.090;-115.352;2023-02-04T10:17:25;1.00;;;0.30;;
76393;SDS011;65216;51.090;-115.352;2023-02-04T10:19:53;0.50;;;0.30;;
76393;SDS011;65216;51.090;-115.352;2023-02-04T10:22:21;1.20;;;0.50;;
76393;SDS011;65216;51.090;-115.352;2023-02-04T10:24:48;0.90;;;0.40;;
76393;SDS011;65216;51.090;-115.352;2023-02-04T10:27:16;1.50;;;0.40;;
76393;SDS011;65216;51.090;-115.352;2023-02-04T10:29:58;1.30;;;0.30;;
76393;SDS011;65216;51.090;-115.352;2023-02-04T10:32:31;0.60;;;0.10;;
76393;SDS011;65216;51.090;-115.352;2023-02-04T10:35:00;2.30;;;0.40;;
76393;SDS011;65216;51.090;-115.352;2023-02-04T10:37:28;0.50;;;0.30;;
76393;SDS011;65216;51.090;-115.352;2023-02-04T10:39:57;0.30;;;0.10;;
76393;SDS011;65216;51.090;-115.352;2023-02-04T10:42:26;1.30;;;0.40;;
76393;SDS011;65216;51.090;-115.352;2023-02-04T10:44:54;0.20;;;0.10;;
76393;SDS011;65216;51.090;-115.352;2023-02-04T10:47:27;0.80;;;0.40;;
76393;SDS011;65216;51.090;-115.352;2023-02-04T10:50:06;0.30;;;0.20;;
76393;SDS011;65216;51.090;-115.352;2023-02-04T10:52:49;0.40;;;0.20;;
76393;SDS011;65216;51.090;-115.352;2023-02-04T10:55:43;0.60;;;0.20;;
76393;SDS011;65216;51.090;-115.352;2023-02-04T10:58:21;2.00;;;0.40;;
76393;SDS011;65216;51.090;-115.352;2023-02-04T11:00:53;2.30;;;0.30;;
76393;SDS011;65216;51.090;-115.352;2023-02-04T11:03:25;0.50;;;0.30;;
76393;SDS011;65216;51.090;-115.352;2023-02-04T11:05:57;1.60;;;0.30;;
76393;SDS011;65216;51.090;-115.352;2023-02-04T11:08:32;0.90;;;0.20;;
76393;SDS011;65216;51.090;-115.352;2023-02-04T11:26:43;0.40;;;0.10;;
76393;SDS011;65216;51.090;-115.352;2023-02-04T11:29:33;0.50;;;0.10;;
76393;SDS011;65216;51.090;-115.352;2023-02-04T11:32:25;0.50;;;0.10;;
76393;SDS011;65216;51.090;-115.352;2023-02-04T11:35:24;0.20;;;0.10;;
76393;SDS011;65216;51.090;-115.352;2023-02-04T11:37:56;0.40;;;0.20;;
76393;SDS011;65216;51.090;-115.352;2023-02-04T11:40:27;0.80;;;0.20;;
76393;SDS011;65216;51.090;-115.352;2023-02-04T11:43:08;0.10;;;0.00;;
76393;SDS011;65216;51.090;-115.352;2023-02-04T11:45:39;0.30;;;0.20;;
76393;SDS011;65216;51.090;-115.352;2023-02-04T11:48:18;0.10;;;0.00;;
76393;SDS011;65216;51.090;-115.352;2023-02-04T11:51:00;1.20;;;0.10;;
76393;SDS011;65216;51.090;-115.352;2023-02-04T11:53:32;0.30;;;0.30;;
76393;SDS011;65216;51.090;-115.352;2023-02-04T11:56:00;0.20;;;0.10;;
76393;SDS011;65216;51.090;-115.352;2023-02-04T11:58:31;0.60;;;0.10;;
76393;SDS011;65216;51.090;-115.352;2023-02-04T12:01:01;0.10;;;0.10;;
76393;SDS011;65216;51.090;-115.352;2023-02-04T12:03:31;0.30;;;0.20;;
76393;SDS011;65216;51.090;-115.352;2023-02-04T12:05:59;0.50;;;0.20;;
76393;SDS011;65216;51.090;-115.352;2023-02-04T12:08:34;0.10;;;0.10;;
76393;SDS011;65216;51.090;-115.352;2023-02-04T12:11:23;0.20;;;0.20;;
76393;SDS011;65216;51.090;-115.352;2023-02-04T12:13:54;0.20;;;0.10;;
76393;SDS011;65216;51.090;-115.352;2023-02-04T12:16:23;0.20;;;0.10;;
76393;SDS011;65216;51.090;-115.352;2023-02-04T12:18:51;0.10;;;0.10;;
76393;SDS011;65216;51.090;-115.352;2023-02-04T12:21:20;0.30;;;0.20;;
76393;SDS011;65216;51.090;-115.352;2023-02-04T12:23:48;0.10;;;0.10;;
76393;SDS011;65216;51.090;-115.352;2023-02-04T12:26:18;0.20;;;0.20;;
76393;SDS011;65216;51.090;-115.352;2023-02-04T12:28:45;0.30;;;0.20;;
76393;SDS011;65216;51.090;-115.352;2023-02-04T12:31:13;0.00;;;0.00;;
76393;SDS011;65216;51.090;-115.352;2023-02-04T12:33:40;0.10;;;0.10;;
76393;SDS011;65216;51.090;-115.352;2023-02-04T12:36:08;0.90;;;0.10;;
76393;SDS011;65216;51.090;-115.352;2023-02-04T12:38:35;0.30;;;0.10;;
76393;SDS011;65216;51.090;-115.352;2023-02-04T12:41:03;0.30;;;0.10;;
76393;SDS011;65216;51.090;-115.352;2023-02-04T12:43:30;0.10;;;0.10;;
76393;SDS011;65216;51.090;-115.352;2023-02-04T12:46:00;0.30;;;0.10;;
76393;SDS011;65216;51.090;-115.352;2023-02-04T12:48:30;0.00;;;0.00;;
76393;SDS011;65216;51.090;-115.352;2023-02-04T12:50:57;0.00;;;0.00;;
76393;SDS011;65216;51.090;-115.352;2023-02-04T12:53:25;0.20;;;0.20;;
76393;SDS011;65216;51.090;-115.352;2023-02-04T12:55:52;0.10;;;0.10;;
76393;SDS011;65216;51.090;-115.352;2023-02-04T12:58:20;0.10;;;0.00;;
76393;SDS011;65216;51.090;-115.352;2023-02-04T13:00:50;0.10;;;0.00;;
76393;SDS011;65216;51.090;-115.352;2023-02-04T13:03:17;0.30;;;0.20;;
76393;SDS011;65216;51.090;-115.352;2023-02-04T13:05:44;0.20;;;0.10;;
76393;SDS011;65216;51.090;-115.352;2023-02-04T13:08:12;0.00;;;0.00;;
76393;SDS011;65216;51.090;-115.352;2023-02-04T13:10:42;0.30;;;0.10;;
76393;SDS011;65216;51.090;-115.352;2023-02-04T13:13:09;0.50;;;0.10;;
76393;SDS011;65216;51.090;-115.352;2023-02-04T13:15:37;0.40;;;0.10;;
76393;SDS011;65216;51.090;-115.352;2023-02-04T13:18:04;0.10;;;0.00;;
76393;SDS011;65216;51.090;-115.352;2023-02-04T13:20:35;0.10;;;0.10;;
76393;SDS011;65216;51.090;-115.352;2023-02-04T13:23:05;0.10;;;0.10;;
76393;SDS011;65216;51.090;-115.352;2023-02-04T13:25:33;0.50;;;0.10;;
76393;SDS011;65216;51.090;-115.352;2023-02-04T13:28:00;0.20;;;0.20;;
76393;SDS011;65216;51.090;-115.352;2023-02-04T13:30:28;0.20;;;0.00;;
76393;SDS011;65216;51.090;-115.352;2023-02-04T13:32:55;0.10;;;0.10;;
76393;SDS011;65216;51.090;-115.352;2023-02-04T13:35:23;0.00;;;0.00;;
76393;SDS011;65216;51.090;-115.352;2023-02-04T13:37:50;0.40;;;0.00;;
76393;SDS011;65216;51.090;-115.352;2023-02-04T13:40:18;0.10;;;0.10;;
76393;SDS011;65216;51.090;-115.352;2023-02-04T13:42:48;0.00;;;0.00;;
76393;SDS011;65216;51.090;-115.352;2023-02-04T13:45:16;0.00;;;0.00;;
76393;SDS011;65216;51.090;-115.352;2023-02-04T13:47:44;0.00;;;0.00;;
76393;SDS011;65216;51.090;-115.352;2023-02-04T13:50:13;0.40;;;0.20;;
76393;SDS011;65216;51.090;-115.352;2023-02-04T13:52:41;0.00;;;0.00;;
76393;SDS011;65216;51.090;-115.352;2023-02-04T13:55:09;0.00;;;0.00;;
76393;SDS011;65216;51.090;-115.352;2023-02-04T13:57:36;0.00;;;0.00;;
76393;SDS011;65216;51.090;-115.352;2023-02-04T14:00:05;0.10;;;0.00;;
76393;SDS011;65216;51.090;-115.352;2023-02-04T14:02:33;0.10;;;0.10;;
76393;SDS011;65216;51.090;-115.352;2023-02-04T14:05:00;0.30;;;0.20;;
76393;SDS011;65216;51.090;-115.352;2023-02-04T14:07:28;0.20;;;0.10;;
76393;SDS011;65216;51.090;-115.352;2023-02-04T14:09:58;0.20;;;0.00;;
76393;SDS011;65216;51.090;-115.352;2023-02-04T14:12:28;0.60;;;0.20;;
76393;SDS011;65216;51.090;-115.352;2023-02-04T14:14:55;0.20;;;0.10;;
76393;SDS011;65216;51.090;-115.352;2023-02-04T14:17:22;0.00;;;0.00;;
76393;SDS011;65216;51.090;-115.352;2023-02-04T14:19:50;0.00;;;0.00;;
76393;SDS011;65216;51.090;-115.352;2023-02-04T14:22:19;0.00;;;0.00;;
76393;SDS011;65216;51.090;-115.352;2023-02-04T14:24:52;0.20;;;0.10;;
76393;SDS011;65216;51.090;-115.352;2023-02-04T14:27:19;0.00;;;0.00;;
76393;SDS011;65216;51.090;-115.352;2023-02-04T14:29:46;0.40;;;0.20;;
76393;SDS011;65216;51.090;-115.352;2023-02-04T14:32:14;0.00;;;0.00;;
76393;SDS011;65216;51.090;-115.352;2023-02-04T14:34:41;0.00;;;0.00;;
76393;SDS011;65216;51.090;-115.352;2023-02-04T14:37:08;0.00;;;0.00;;
76393;SDS011;65216;51.090;-115.352;2023-02-04T14:39:35;0.30;;;0.10;;
76393;SDS011;65216;51.090;-115.352;2023-02-04T14:42:03;0.30;;;0.10;;
76393;SDS011;65216;51.090;-115.352;2023-02-04T14:44:31;0.00;;;0.00;;